createdAt,value
2023-05-03T00:01:17.224Z,53.15
2023-05-03T00:03:45.576Z,52.48
2023-05-03T00:06:12.952Z,52.55
2023-05-03T00:08:39.314Z,53.93
2023-05-03T00:11:05.722Z,54.82
2023-05-03T00:13:32.080Z,53.80
2023-05-03T00:15:58.419Z,53.86
2023-05-03T00:18:24.724Z,54.41
2023-05-03T00:20:51.266Z,54.55
2023-05-03T00:23:17.611Z,55.60
2023-05-03T00:25:44.621Z,56.71
2023-05-03T00:28:10.958Z,56.55
2023-05-03T00:30:37.277Z,57.44
2023-05-03T00:33:03.702Z,57.75
2023-05-03T00:35:30.175Z,57.04
2023-05-03T00:37:56.533Z,56.83
2023-05-03T00:40:22.858Z,55.82
2023-05-03T00:42:49.248Z,56.81
2023-05-03T00:45:15.894Z,57.26
2023-05-03T00:47:43.403Z,55.69
2023-05-03T00:50:11.733Z,56.36
2023-05-03T00:52:38.553Z,56.94
2023-05-03T00:55:05.202Z,56.79
2023-05-03T00:57:31.563Z,55.94
2023-05-03T00:59:59.043Z,57.27
2023-05-03T01:02:25.744Z,56.38
2023-05-03T01:04:53.464Z,56.89
2023-05-03T01:07:28.488Z,56.40
2023-05-03T01:09:54.759Z,56.10
2023-05-03T01:12:30.527Z,57.14
2023-05-03T01:15:06.524Z,58.54
2023-05-03T01:17:38.952Z,56.89
2023-05-03T01:20:08.524Z,56.73
2023-05-03T01:22:50.517Z,57.34
2023-05-03T01:25:16.825Z,56.36
2023-05-03T01:27:43.348Z,56.74
2023-05-03T01:30:10.988Z,57.93
2023-05-03T01:32:56.189Z,57.30
2023-05-03T01:35:31.517Z,57.55
2023-05-03T01:37:58.699Z,57.12
2023-05-03T01:40:26.653Z,56.63
2023-05-03T01:42:54.948Z,57.18
2023-05-03T01:45:21.803Z,56.58
2023-05-03T01:47:48.229Z,56.99
2023-05-03T01:50:14.628Z,57.18
2023-05-03T01:52:41.078Z,58.24
2023-05-03T01:55:07.571Z,57.25
2023-05-03T01:57:33.899Z,58.59
2023-05-03T02:00:00.354Z,58.91
2023-05-03T02:02:26.789Z,57.84
2023-05-03T02:04:53.142Z,58.02
2023-05-03T02:07:19.467Z,58.11
2023-05-03T02:09:45.792Z,59.62
2023-05-03T02:12:12.115Z,59.45
2023-05-03T02:14:38.390Z,59.35
2023-05-03T02:17:04.832Z,61.02
2023-05-03T02:19:31.199Z,61.34
2023-05-03T02:21:57.549Z,61.13
2023-05-03T02:24:24.057Z,60.57
2023-05-03T02:26:50.667Z,60.93
2023-05-03T02:29:17.015Z,60.35
2023-05-03T02:31:43.346Z,60.47
2023-05-03T02:34:09.739Z,58.96
2023-05-03T02:36:36.167Z,61.09
2023-05-03T02:39:02.487Z,60.29
2023-05-03T02:41:28.784Z,60.36
2023-05-03T02:43:55.063Z,59.77
2023-05-03T02:46:21.371Z,60.83
2023-05-03T02:48:47.747Z,61.22
2023-05-03T02:51:14.077Z,61.01
2023-05-03T02:53:40.576Z,60.57
2023-05-03T02:56:07.446Z,61.46
2023-05-03T02:58:33.744Z,59.43
2023-05-03T03:01:00.098Z,60.17
2023-05-03T03:03:26.752Z,59.73
2023-05-03T03:05:53.137Z,60.51
2023-05-03T03:08:19.430Z,60.48
2023-05-03T03:10:45.798Z,60.66
2023-05-03T03:13:12.126Z,60.88
2023-05-03T03:15:38.420Z,61.52
2023-05-03T03:18:04.923Z,59.92
2023-05-03T03:20:31.296Z,61.02
2023-05-03T03:22:57.705Z,60.32
2023-05-03T03:25:24.059Z,60.47
2023-05-03T03:27:50.375Z,59.86
2023-05-03T03:30:16.744Z,61.73
2023-05-03T03:32:43.077Z,61.87
2023-05-03T03:35:09.752Z,60.28
2023-05-03T03:37:36.069Z,60.69
2023-05-03T03:40:02.555Z,60.95
2023-05-03T03:42:29.172Z,60.55
2023-05-03T03:44:55.642Z,61.25
2023-05-03T03:47:22.193Z,62.62
2023-05-03T03:49:48.605Z,62.65
2023-05-03T03:52:15.009Z,63.00
2023-05-03T03:54:41.544Z,62.26
2023-05-03T03:57:07.945Z,62.39
2023-05-03T03:59:34.273Z,62.55
2023-05-03T04:02:00.669Z,62.23
2023-05-03T04:04:27.097Z,63.86
2023-05-03T04:06:53.602Z,62.50
2023-05-03T04:09:20.006Z,62.51
2023-05-03T04:11:46.415Z,61.92
2023-05-03T04:14:12.773Z,62.31
2023-05-03T04:16:39.190Z,61.54
2023-05-03T04:19:05.634Z,61.56
2023-05-03T04:21:32.274Z,62.12
2023-05-03T04:23:59.673Z,61.09
2023-05-03T04:26:31.795Z,61.91
2023-05-03T04:28:59.158Z,61.13
2023-05-03T04:31:26.880Z,62.06
2023-05-03T04:33:53.338Z,60.63
2023-05-03T04:36:19.668Z,60.32
2023-05-03T04:38:46.602Z,61.00
2023-05-03T04:41:15.508Z,61.51
2023-05-03T04:43:43.028Z,61.58
2023-05-03T04:46:09.349Z,61.48
2023-05-03T04:48:36.226Z,61.39
2023-05-03T04:51:02.664Z,60.84
2023-05-03T04:53:28.957Z,61.11
2023-05-03T04:55:55.268Z,61.37
2023-05-03T04:58:21.634Z,61.93
2023-05-03T05:00:48.931Z,61.65
2023-05-03T05:03:15.343Z,60.99
2023-05-03T05:05:41.733Z,60.32
2023-05-03T05:08:08.018Z,61.66
2023-05-03T05:10:38.736Z,60.46
2023-05-03T05:13:05.088Z,60.41
2023-05-03T05:15:31.370Z,60.48
2023-05-03T05:17:57.763Z,60.97
2023-05-03T05:20:24.204Z,61.47
2023-05-03T05:22:50.473Z,60.94
2023-05-03T05:25:16.938Z,61.29
2023-05-03T05:27:43.276Z,60.72
2023-05-03T05:30:09.724Z,60.75
2023-05-03T05:32:36.159Z,61.15
2023-05-03T05:35:02.542Z,59.81
2023-05-03T05:37:29.035Z,60.58
2023-05-03T05:39:55.473Z,60.10
2023-05-03T05:42:21.990Z,61.20
2023-05-03T05:44:48.265Z,61.36
2023-05-03T05:47:14.865Z,61.10
2023-05-03T05:49:41.247Z,60.46
2023-05-03T05:52:07.695Z,60.67
2023-05-03T05:54:34.029Z,60.71
2023-05-03T05:57:00.870Z,60.80
2023-05-03T05:59:27.227Z,61.38
2023-05-03T06:01:53.540Z,59.90
2023-05-03T06:04:19.877Z,61.82
2023-05-03T06:06:46.412Z,62.02
2023-05-03T06:09:23.488Z,61.99
2023-05-03T06:11:51.436Z,61.13
2023-05-03T06:14:19.280Z,60.65
2023-05-03T06:16:45.725Z,61.02
2023-05-03T06:19:12.126Z,62.10
2023-05-03T06:21:38.413Z,62.33
2023-05-03T06:24:04.817Z,61.01
2023-05-03T06:26:31.494Z,61.64
2023-05-03T06:28:57.870Z,62.40
2023-05-03T06:31:24.227Z,60.76
2023-05-03T06:33:50.691Z,61.78
2023-05-03T06:36:17.026Z,62.08
2023-05-03T06:38:43.905Z,60.10
2023-05-03T06:41:10.297Z,61.88
2023-05-03T06:43:36.580Z,61.99
2023-05-03T06:46:03.166Z,59.76
2023-05-03T06:48:29.638Z,60.98
2023-05-03T06:50:56.211Z,60.34
2023-05-03T06:53:22.607Z,60.57
2023-05-03T06:55:48.901Z,59.39
2023-05-03T06:58:16.608Z,60.25
2023-05-03T07:00:43.119Z,59.30
2023-05-03T07:03:09.494Z,59.12
2023-05-03T07:05:36.235Z,59.64
2023-05-03T07:08:03.476Z,58.10
2023-05-03T07:10:31.293Z,59.13
2023-05-03T07:12:57.890Z,58.56
2023-05-03T07:15:24.403Z,57.96
2023-05-03T07:17:50.793Z,58.32
2023-05-03T07:20:17.241Z,57.73
2023-05-03T07:22:44.471Z,57.09
2023-05-03T07:25:12.261Z,57.55
2023-05-03T07:27:38.696Z,57.63
2023-05-03T07:30:05.597Z,56.91
2023-05-03T07:32:32.412Z,57.04
2023-05-03T07:34:58.733Z,56.52
2023-05-03T07:37:26.817Z,55.87
2023-05-03T07:39:53.715Z,56.91
2023-05-03T07:42:20.365Z,57.19
2023-05-03T07:44:46.649Z,57.30
2023-05-03T07:47:12.987Z,57.56
2023-05-03T07:49:39.338Z,57.54
2023-05-03T07:52:05.852Z,56.32
2023-05-03T07:54:32.220Z,56.43
2023-05-03T07:56:58.552Z,55.72
2023-05-03T07:59:24.863Z,56.07
2023-05-03T08:01:51.484Z,55.74
2023-05-03T08:04:18.260Z,55.90
2023-05-03T08:06:44.959Z,55.52
2023-05-03T08:09:11.637Z,56.54
2023-05-03T08:11:38.008Z,56.91
2023-05-03T08:14:04.313Z,57.66
2023-05-03T08:16:30.919Z,54.96
2023-05-03T08:18:57.310Z,54.87
2023-05-03T08:21:26.083Z,55.49
2023-05-03T08:23:53.233Z,54.89
2023-05-03T08:26:19.555Z,54.41
2023-05-03T08:28:45.892Z,54.46
2023-05-03T08:31:12.364Z,54.30
2023-05-03T08:33:38.693Z,55.52
2023-05-03T08:36:05.191Z,56.05
2023-05-03T08:38:32.577Z,58.59
2023-05-03T08:41:04.558Z,57.12
2023-05-03T08:43:32.637Z,57.57
2023-05-03T08:45:59.033Z,56.48
2023-05-03T08:48:25.540Z,57.38
2023-05-03T08:50:53.762Z,55.17
2023-05-03T08:53:20.386Z,55.56
2023-05-03T08:55:46.693Z,55.81
2023-05-03T08:58:13.660Z,55.15
2023-05-03T09:00:41.683Z,54.72
2023-05-03T09:03:08.186Z,55.33
2023-05-03T09:05:35.487Z,54.04
2023-05-03T09:08:07.232Z,54.55
2023-05-03T09:10:36.592Z,54.54
2023-05-03T09:13:03.212Z,53.42
2023-05-03T09:15:30.490Z,54.68
2023-05-03T09:18:16.149Z,52.30
2023-05-03T09:20:50.946Z,50.99
2023-05-03T09:23:18.851Z,49.08
2023-05-03T09:25:49.270Z,47.69
2023-05-03T09:28:16.222Z,49.21
2023-05-03T09:30:42.802Z,48.81
2023-05-03T09:33:10.186Z,48.98
2023-05-03T09:35:37.013Z,49.66
2023-05-03T09:38:03.387Z,49.67
2023-05-03T09:40:29.848Z,48.43
2023-05-03T09:43:09.092Z,49.33
2023-05-03T09:45:36.242Z,49.95
2023-05-03T09:48:03.536Z,50.42
2023-05-03T09:50:32.021Z,50.46
2023-05-03T09:53:01.333Z,50.60
2023-05-03T09:55:28.079Z,51.04
2023-05-03T09:57:55.556Z,49.96
2023-05-03T10:00:22.044Z,49.89
2023-05-03T10:02:50.391Z,49.35
2023-05-03T10:05:18.353Z,49.33
2023-05-03T10:07:45.026Z,51.73
2023-05-03T10:10:11.372Z,47.71
2023-05-03T10:12:37.916Z,48.58
2023-05-03T10:15:07.266Z,49.26
2023-05-03T10:17:46.356Z,50.92
2023-05-03T10:20:29.141Z,49.82
2023-05-03T10:23:04.639Z,50.70
2023-05-03T10:25:31.848Z,50.45
2023-05-03T10:28:02.118Z,51.09
2023-05-03T10:30:29.746Z,50.61
2023-05-03T10:32:57.003Z,51.08
2023-05-03T10:35:26.327Z,50.70
2023-05-03T10:37:52.642Z,50.33
2023-05-03T10:40:19.187Z,53.27
2023-05-03T10:42:52.645Z,50.55
2023-05-03T10:45:22.927Z,50.38
2023-05-03T10:48:07.812Z,48.86
2023-05-03T10:50:34.198Z,47.58
2023-05-03T10:53:00.557Z,47.23
2023-05-03T10:55:26.890Z,48.26
2023-05-03T10:57:55.131Z,47.95
2023-05-03T11:00:31.058Z,48.29
2023-05-03T11:03:12.603Z,48.67
2023-05-03T11:05:39.201Z,49.44
2023-05-03T11:08:09.460Z,50.46
2023-05-03T11:10:35.941Z,49.97
2023-05-03T11:13:02.218Z,48.75
2023-05-03T11:15:28.569Z,48.28
2023-05-03T11:17:55.032Z,47.55
2023-05-03T11:20:21.366Z,47.49
2023-05-03T11:22:47.871Z,48.87
2023-05-03T11:25:15.351Z,47.79
2023-05-03T11:27:42.014Z,50.18
2023-05-03T11:30:10.155Z,48.40
2023-05-03T11:32:36.867Z,47.52
2023-05-03T11:35:05.669Z,49.11
2023-05-03T11:37:32.320Z,47.89
2023-05-03T11:39:59.000Z,46.34
2023-05-03T11:42:26.579Z,46.13
2023-05-03T11:44:53.083Z,47.82
2023-05-03T11:47:19.583Z,47.21
2023-05-03T11:49:52.726Z,46.20
2023-05-03T11:52:26.150Z,46.79
2023-05-03T11:54:52.459Z,46.24
2023-05-03T11:57:19.312Z,45.56
2023-05-03T11:59:46.202Z,46.42
2023-05-03T12:02:14.018Z,46.41
2023-05-03T12:04:42.127Z,47.22
2023-05-03T12:07:15.114Z,47.29
2023-05-03T12:09:47.321Z,47.38
2023-05-03T12:12:27.752Z,46.33
2023-05-03T12:15:00.913Z,47.82
2023-05-03T12:17:42.402Z,45.82
2023-05-03T12:22:51.252Z,47.42
2023-05-03T12:25:20.425Z,46.03
2023-05-03T12:27:59.907Z,45.52
2023-05-03T12:30:34.178Z,45.66
2023-05-03T12:33:04.171Z,45.43
2023-05-03T12:35:33.508Z,46.75
2023-05-03T12:38:03.028Z,47.26
2023-05-03T12:40:34.056Z,47.42
2023-05-03T12:43:01.678Z,47.26
2023-05-03T12:45:32.151Z,45.94
2023-05-03T12:48:00.551Z,46.78
2023-05-03T12:50:30.987Z,46.93
2023-05-03T12:55:25.677Z,46.70
2023-05-03T12:58:13.896Z,46.37
2023-05-03T13:00:49.120Z,47.34
2023-05-03T13:03:32.511Z,45.95
2023-05-03T13:06:00.953Z,47.81
2023-05-03T13:08:34.053Z,48.21
2023-05-03T13:11:02.003Z,47.91
2023-05-03T13:13:28.705Z,47.42
2023-05-03T13:15:55.348Z,46.77
2023-05-03T13:18:22.767Z,48.82
2023-05-03T13:20:50.348Z,48.75
2023-05-03T13:23:16.704Z,47.02
2023-05-03T13:25:44.162Z,47.20
2023-05-03T13:28:10.491Z,48.40
2023-05-03T13:30:36.813Z,46.99
2023-05-03T13:33:03.365Z,46.46
2023-05-03T13:35:29.742Z,45.77
2023-05-03T13:37:56.568Z,44.82
2023-05-03T13:40:24.445Z,45.14
2023-05-03T13:42:51.061Z,45.60
2023-05-03T13:45:18.232Z,44.84
2023-05-03T13:50:13.840Z,45.17
2023-05-03T13:52:42.352Z,46.59
2023-05-03T13:55:08.933Z,44.97
2023-05-03T13:57:35.304Z,45.42
2023-05-03T14:00:02.102Z,45.91
2023-05-03T14:02:28.704Z,45.33
2023-05-03T14:04:55.092Z,44.89
2023-05-03T14:07:21.403Z,44.12
2023-05-03T14:09:47.728Z,45.31
2023-05-03T14:12:14.042Z,45.67
2023-05-03T14:14:40.502Z,44.42
2023-05-03T14:17:08.199Z,44.81
2023-05-03T14:19:35.477Z,43.40
2023-05-03T14:22:02.827Z,44.07
2023-05-03T14:24:29.170Z,44.05
2023-05-03T14:26:55.584Z,45.71
2023-05-03T14:29:21.956Z,47.27
2023-05-03T14:31:48.434Z,46.94
2023-05-03T14:34:15.144Z,46.97
2023-05-03T14:36:43.713Z,47.25
2023-05-03T14:39:10.566Z,44.15
2023-05-03T14:41:37.302Z,45.71
2023-05-03T14:44:03.920Z,46.68
2023-05-03T14:46:31.083Z,45.30
2023-05-03T14:48:57.554Z,45.34
2023-05-03T14:51:23.934Z,45.29
2023-05-03T14:53:50.650Z,46.03
2023-05-03T14:56:17.413Z,45.75
2023-05-03T14:58:43.828Z,45.96
2023-05-03T15:01:17.474Z,46.06
2023-05-03T15:03:43.922Z,45.94
2023-05-03T15:06:10.812Z,45.11
2023-05-03T15:08:39.038Z,46.60
2023-05-03T15:11:07.366Z,46.96
2023-05-03T15:13:34.122Z,46.48
2023-05-03T15:16:00.705Z,46.42
2023-05-03T15:18:27.408Z,45.41
2023-05-03T15:20:53.848Z,46.62
2023-05-03T15:23:20.264Z,46.04
2023-05-03T15:25:46.586Z,45.23
2023-05-03T15:28:12.876Z,45.87
2023-05-03T15:30:39.228Z,45.84
2023-05-03T15:33:05.580Z,44.28
2023-05-03T15:35:32.368Z,45.81
2023-05-03T15:37:58.740Z,45.94
2023-05-03T15:40:27.023Z,46.38
2023-05-03T15:42:53.588Z,45.26
2023-05-03T15:45:20.860Z,46.14
2023-05-03T15:47:47.174Z,46.39
2023-05-03T15:50:13.836Z,45.66
2023-05-03T15:52:40.360Z,43.69
2023-05-03T15:55:08.219Z,43.12
2023-05-03T15:57:34.663Z,41.87
2023-05-03T16:00:01.824Z,41.88
2023-05-03T16:02:28.276Z,42.35
2023-05-03T16:04:54.585Z,41.38
2023-05-03T16:07:21.001Z,41.52
2023-05-03T16:09:47.440Z,41.93
2023-05-03T16:12:13.725Z,42.71
2023-05-03T16:14:40.341Z,42.38
2023-05-03T16:17:06.709Z,42.35
2023-05-03T16:19:33.084Z,42.62
2023-05-03T16:21:59.456Z,42.24
2023-05-03T16:24:25.825Z,41.21
2023-05-03T16:26:52.613Z,42.42
2023-05-03T16:29:19.350Z,43.20
2023-05-03T16:31:46.894Z,43.72
2023-05-03T16:34:13.978Z,44.59
2023-05-03T16:36:43.970Z,44.11
2023-05-03T16:39:11.285Z,42.76
2023-05-03T16:41:37.907Z,43.08
2023-05-03T16:44:05.076Z,42.66
2023-05-03T16:46:35.960Z,41.06
2023-05-03T16:49:02.737Z,42.45
2023-05-03T16:51:29.138Z,43.23
2023-05-03T16:53:55.710Z,43.30
2023-05-03T16:56:22.646Z,42.75
2023-05-03T16:58:49.795Z,43.30
2023-05-03T17:01:16.282Z,42.21
2023-05-03T17:03:43.201Z,43.05
2023-05-03T17:06:09.554Z,43.52
2023-05-03T17:08:35.965Z,43.63
2023-05-03T17:11:06.552Z,43.74
2023-05-03T17:13:32.897Z,43.66
2023-05-03T17:15:59.181Z,44.22
2023-05-03T17:18:25.726Z,44.03
2023-05-03T17:20:52.731Z,43.56
2023-05-03T17:23:20.570Z,44.57
2023-05-03T17:25:48.295Z,45.15
2023-05-03T17:28:14.646Z,43.95
2023-05-03T17:30:40.985Z,45.06
2023-05-03T17:33:07.897Z,44.18
2023-05-03T17:35:34.558Z,45.27
2023-05-03T17:38:00.944Z,45.54
2023-05-03T17:40:27.327Z,44.66
2023-05-03T17:42:53.766Z,44.78
2023-05-03T17:45:20.074Z,45.22
2023-05-03T17:47:46.862Z,45.40
2023-05-03T17:50:13.715Z,45.73
2023-05-03T17:52:40.123Z,47.43
2023-05-03T17:55:06.634Z,46.31
2023-05-03T17:57:32.974Z,46.72
2023-05-03T17:59:59.361Z,46.44
2023-05-03T18:02:26.012Z,46.99
2023-05-03T18:04:52.985Z,45.64
2023-05-03T18:07:19.515Z,45.96
2023-05-03T18:09:45.826Z,45.73
2023-05-03T18:12:13.566Z,46.32
2023-05-03T18:14:39.890Z,45.69
2023-05-03T18:17:07.389Z,49.14
2023-05-03T18:19:33.697Z,47.15
2023-05-03T18:22:00.048Z,48.83
2023-05-03T18:24:26.491Z,48.37
2023-05-03T18:26:52.798Z,51.50
2023-05-03T18:29:19.166Z,52.09
2023-05-03T18:31:45.642Z,49.60
2023-05-03T18:34:12.098Z,49.89
2023-05-03T18:36:39.006Z,49.66
2023-05-03T18:39:05.493Z,50.38
2023-05-03T18:41:31.957Z,50.17
2023-05-03T18:43:58.737Z,52.78
2023-05-03T18:46:25.095Z,54.41
2023-05-03T18:48:51.447Z,54.69
2023-05-03T18:51:18.135Z,56.45
2023-05-03T18:53:44.832Z,57.15
2023-05-03T18:56:11.258Z,57.82
2023-05-03T18:58:37.708Z,59.10
2023-05-03T19:01:05.591Z,59.01
2023-05-03T19:03:32.072Z,60.18
2023-05-03T19:06:03.941Z,60.34
2023-05-03T19:08:30.746Z,60.34
2023-05-03T19:10:57.088Z,61.36
2023-05-03T19:13:23.510Z,61.20
2023-05-03T19:15:50.050Z,62.78
2023-05-03T19:18:16.907Z,62.56
2023-05-03T19:20:43.534Z,62.99
2023-05-03T19:23:09.935Z,63.00
2023-05-03T19:25:36.555Z,63.13
2023-05-03T19:28:05.060Z,62.74
2023-05-03T19:30:31.518Z,63.23
2023-05-03T19:32:58.214Z,62.89
2023-05-03T19:35:24.689Z,63.46
2023-05-03T19:37:51.035Z,64.70
2023-05-03T19:40:17.803Z,64.88
2023-05-03T19:42:44.144Z,64.89
2023-05-03T19:45:10.903Z,65.75
2023-05-03T19:47:37.294Z,64.92
2023-05-03T19:50:03.890Z,65.27
2023-05-03T19:52:31.422Z,65.58
2023-05-03T19:54:57.938Z,65.69
2023-05-03T19:57:24.479Z,66.67
2023-05-03T19:59:50.874Z,66.99
2023-05-03T20:02:18.417Z,66.03
2023-05-03T20:04:44.781Z,66.29
2023-05-03T20:07:11.325Z,67.17
2023-05-03T20:09:37.619Z,67.57
2023-05-03T20:12:04.123Z,67.38
2023-05-03T20:14:30.504Z,67.53
2023-05-03T20:16:56.916Z,66.78
2023-05-03T20:19:24.178Z,66.05
2023-05-03T20:21:50.584Z,61.77
2023-05-03T20:24:16.925Z,60.23
2023-05-03T20:26:43.435Z,59.92
2023-05-03T20:29:10.305Z,58.24
2023-05-03T20:31:36.670Z,58.30
2023-05-03T20:34:03.121Z,59.05
2023-05-03T20:36:29.564Z,57.80
2023-05-03T20:38:56.368Z,57.24
2023-05-03T20:41:23.074Z,57.11
2023-05-03T20:43:51.115Z,57.94
2023-05-03T20:46:18.171Z,58.13
2023-05-03T20:48:44.563Z,58.58
2023-05-03T20:51:10.912Z,57.77
2023-05-03T20:53:37.346Z,58.50
2023-05-03T20:56:06.271Z,57.85
2023-05-03T20:58:32.917Z,58.98
2023-05-03T21:01:00.539Z,57.83
2023-05-03T21:03:27.060Z,58.89
2023-05-03T21:05:53.798Z,57.63
2023-05-03T21:08:20.184Z,57.58
2023-05-03T21:10:46.536Z,58.90
2023-05-03T21:13:13.046Z,57.84
2023-05-03T21:15:39.489Z,58.34
2023-05-03T21:18:06.549Z,59.55
2023-05-03T21:20:33.452Z,59.05
2023-05-03T21:22:59.930Z,59.21
2023-05-03T21:25:26.305Z,59.47
2023-05-03T21:27:53.201Z,58.20
2023-05-03T21:30:20.532Z,59.86
2023-05-03T21:32:49.573Z,60.10
2023-05-03T21:35:16.764Z,59.63
2023-05-03T21:37:43.493Z,59.22
2023-05-03T21:40:10.295Z,59.30
2023-05-03T21:42:36.872Z,59.13
2023-05-03T21:45:03.245Z,59.45
2023-05-03T21:47:29.725Z,59.27
2023-05-03T21:49:56.132Z,58.45
2023-05-03T21:52:22.460Z,59.23
2023-05-03T21:54:48.796Z,58.94
2023-05-03T21:57:15.185Z,59.61
2023-05-03T21:59:41.960Z,60.34
2023-05-03T22:02:08.447Z,58.62
2023-05-03T22:04:34.880Z,60.17
2023-05-03T22:07:01.258Z,59.61
2023-05-03T22:09:27.549Z,59.92
2023-05-03T22:11:53.854Z,59.21
2023-05-03T22:14:20.147Z,58.76
2023-05-03T22:16:46.459Z,58.37
2023-05-03T22:19:13.269Z,59.15
2023-05-03T22:21:39.569Z,58.50
2023-05-03T22:24:06.246Z,60.21
2023-05-03T22:26:32.552Z,59.41
2023-05-03T22:28:58.867Z,59.87
2023-05-03T22:31:26.513Z,59.63
2023-05-03T22:33:53.007Z,59.75
2023-05-03T22:36:19.325Z,60.04
2023-05-03T22:38:45.721Z,59.70
2023-05-03T22:41:12.244Z,60.19
2023-05-03T22:43:38.711Z,59.39
2023-05-03T22:46:05.443Z,60.60
2023-05-03T22:48:33.908Z,59.83
2023-05-03T22:51:00.260Z,60.19
2023-05-03T22:53:26.626Z,60.37
2023-05-03T22:56:01.350Z,59.04
2023-05-03T22:58:27.925Z,59.52
2023-05-03T23:00:54.318Z,59.71
2023-05-03T23:03:21.357Z,59.71
2023-05-03T23:05:48.680Z,59.98
2023-05-03T23:08:15.350Z,60.14
2023-05-03T23:10:42.163Z,61.05
2023-05-03T23:13:09.458Z,61.04
2023-05-03T23:15:36.032Z,60.64
2023-05-03T23:18:02.811Z,60.53
2023-05-03T23:20:29.461Z,61.96
2023-05-03T23:22:55.809Z,60.84
2023-05-03T23:25:22.206Z,61.88
2023-05-03T23:27:48.923Z,61.85
2023-05-03T23:30:15.703Z,60.81
2023-05-03T23:32:42.761Z,61.27
2023-05-03T23:35:10.282Z,61.32
2023-05-03T23:37:37.358Z,61.98
2023-05-03T23:40:04.751Z,61.63
2023-05-03T23:42:31.337Z,61.58
2023-05-03T23:44:57.714Z,62.76
2023-05-03T23:47:24.192Z,63.06
2023-05-03T23:49:50.944Z,62.56
2023-05-03T23:52:18.955Z,63.25
2023-05-03T23:54:45.369Z,62.68
2023-05-03T23:57:11.735Z,63.04
2023-05-03T23:59:38.068Z,63.01
